Azamara Quest — 9HOM8 — position and weather

sailwx.info

Track history (hours):
 
Tides and Currents Weather Stations Pressure Air Temp Water Temp Dewpoint Dewpoint Depression Visibility Wind Speed Wind Dir Waves Ship Positions

Azamara Quest

Last reported at 2017-May-25 10:30 UTC. Time now 2017-May-25 10:39 UTC.
Position N 43°33' E 010°18'.

Length 181 m; draft 5.9 m.

Type: Passenger vessel. MMSI: 256216000.

Date/timePositionNaut miles runAvg speedWind from/ knotsBaromVisibWave heightAir tempDewpointWater temp
2017-May-25 10:30N 43°33' E 010°18'0 0.0
2017-May-25 10:00N 43°33' E 010°18'0 0.0
2017-May-25 09:30N 43°33' E 010°18'0 0.0
2017-May-25 09:00N 43°33' E 010°18'0 0.0
2017-May-25 08:30N 43°33' E 010°18'0 0.0
2017-May-25 08:00N 43°33' E 010°18'0 0.0
2017-May-25 07:27N 43°33' E 010°18'0 0.0
2017-May-25 07:00N 43°33' E 010°18'0 0.0
2017-May-25 06:24N 43°33' E 010°18'0 0.0
2017-May-25 06:00N 43°33' E 010°18'0 0.0
2017-May-25 05:27N 43°33' E 010°18'0 0.0
2017-May-25 05:00N 43°33' E 010°18'0 0.0
2017-May-25 04:30N 43°33' E 010°18'2 3.4
2017-May-25 04:00N 43°32' E 010°17'4 7.9
2017-May-25 03:30N 43°30' E 010°12'4 7.7
2017-May-25 03:00N 43°30' E 010°07'4 7.7
2017-May-25 02:30N 43°31' E 010°01'4 7.8
2017-May-25 02:00N 43°32' E 009°56'4 8.2
2017-May-25 01:30N 43°33' E 009°51'5 9.3
2017-May-25 01:00N 43°33' E 009°44'5 9.4
2017-May-25 00:30N 43°33' E 009°38'5 9.4
2017-May-25 00:00N 43°33' E 009°31'5 9.4
2017-May-24 23:30N 43°32' E 009°25'5 9.3
2017-May-24 23:00N 43°32' E 009°18'5 9.2
2017-May-24 22:30N 43°32' E 009°12'5 9.6
2017-May-24 22:00N 43°32' E 009°05'814.8
2017-May-24 21:30N 43°32' E 008°55'714.8
2017-May-24 21:00N 43°32' E 008°45'714.9
2017-May-24 20:30N 43°32' E 008°35'815.1
2017-May-24 20:00N 43°31' E 008°24'714.9
2017-May-24 19:30N 43°31' E 008°14'715.0
2017-May-24 19:00N 43°31' E 008°04'714.7
2017-May-24 18:30N 43°31' E 007°54'714.5
2017-May-24 18:00N 43°32' E 007°44'714.2
2017-May-24 17:30N 43°32' E 007°34'714.6
2017-May-24 17:00N 43°34' E 007°24'713.9
2017-May-24 16:30N 43°40' E 007°18'2 3.9
2017-May-24 15:59N 43°42' E 007°17'0 0.0
2017-May-24 15:12N 43°42' E 007°17'0 0.0
2017-May-24 14:51N 43°42' E 007°17'0 0.0
2017-May-24 13:30N 43°42' E 007°17'0 0.0
2017-May-24 12:57N 43°42' E 007°17'0 0.0
2017-May-24 12:21N 43°42' E 007°17'0 0.0
2017-May-24 11:57N 43°42' E 007°17'0 0.0
2017-May-24 11:27N 43°42' E 007°17'0 0.0
2017-May-24 10:57N 43°42' E 007°17'0 0.0
2017-May-24 10:21N 43°42' E 007°17'0 0.0
2017-May-24 10:00N 43°42' E 007°17'0 0.0
2017-May-24 08:09N 43°42' E 007°17'0 0.0
2017-May-24 07:51N 43°42' E 007°17'0 0.0
2017-May-24 04:57N 43°42' E 007°17'0 0.0
2017-May-24 04:03N 43°42' E 007°17'0 0.0
2017-May-24 03:50N 43°42' E 007°17'1 2.0
2017-May-24 03:30N 43°41' E 007°17'4 7.1
2017-May-24 03:00N 43°37' E 007°18'3 6.2
2017-May-24 02:30N 43°34' E 007°18'3 6.2
2017-May-24 02:00N 43°31' E 007°18'3 6.5
2017-May-24 01:30N 43°28' E 007°18'3 6.7
2017-May-24 01:00N 43°25' E 007°19'4 7.0
2017-May-24 00:30N 43°21' E 007°20'5 9.2
2017-May-24 00:00N 43°19' E 007°25'4 7.8
2017-May-23 23:30N 43°18' E 007°30'4 7.4
2017-May-23 23:00N 43°22' E 007°32'4 7.2
2017-May-23 22:30N 43°25' E 007°31'3 6.7
2017-May-23 22:00N 43°28' E 007°28'3 6.9
2017-May-23 21:30N 43°31' E 007°28'4 7.0
2017-May-23 21:00N 43°35' E 007°27'3 6.9
2017-May-23 20:30N 43°38' E 007°27'3 6.7
2017-May-23 20:00N 43°42' E 007°27'2 4.4
2017-May-23 19:30N 43°44' E 007°26'0 0.1
2017-May-23 18:46N 43°44' E 007°26'0 0.0
2017-May-23 16:58N 43°44' E 007°26'2 0.1
2017-May-23 05:11N 43°44' E 007°28'310.8
2017-May-23 04:56N 43°44' E 007°32'3 7.7
2017-May-23 04:30N 43°44' E 007°37'4 7.4
2017-May-23 04:00N 43°44' E 007°42'4 7.6
2017-May-23 03:29N 43°44' E 007°47'4 7.8
2017-May-23 03:00N 43°44' E 007°53'4 8.0
2017-May-23 02:29N 43°44' E 007°58'4 7.9
2017-May-23 02:00N 43°44' E 008°04'4 8.6
2017-May-23 01:30N 43°43' E 008°09'6 9.7
2017-May-23 00:54N 43°42' E 008°17'4 9.9
2017-May-23 00:30N 43°41' E 008°23'5 9.7
2017-May-23 00:00N 43°41' E 008°29'5 9.5
2017-May-22 23:30N 43°40' E 008°36'713.4
2017-May-22 23:00N 43°40' E 008°45'714.8
2017-May-22 22:30N 43°39' E 008°55'715.0
2017-May-22 22:00N 43°38' E 009°06'714.9
2017-May-22 21:30N 43°37' E 009°16'714.8
2017-May-22 21:00N 43°35' E 009°26'714.8
2017-May-22 20:30N 43°35' E 009°36'714.7
2017-May-22 20:00N 43°33' E 009°46'714.5
2017-May-22 19:30N 43°32' E 009°56'713.9
2017-May-22 19:01N 43°30' E 010°05'713.8
2017-May-22 18:31N 43°32' E 010°14'3 5.6
2017-May-22 17:58N 43°33' E 010°18'0 0.0
2017-May-22 17:28N 43°33' E 010°18'0 0.0
2017-May-22 16:58N 43°33' E 010°18'0 0.0
2017-May-22 16:28N 43°33' E 010°18'0 0.0
2017-May-22 15:58N 43°33' E 010°18'0 0.0
2017-May-22 15:28N 43°33' E 010°18'0 0.0
2017-May-22 14:55N 43°33' E 010°18'0 0.0
2017-May-22 13:58N 43°33' E 010°18'0 0.0
2017-May-22 13:25N 43°33' E 010°18'0 0.0
2017-May-22 12:58N 43°33' E 010°18'0 0.0
2017-May-22 12:28N 43°33' E 010°18'0 0.0
2017-May-22 11:55N 43°33' E 010°18'0 0.0
2017-May-22 11:25N 43°33' E 010°18'0 0.0
2017-May-22 10:58N 43°33' E 010°18'0 0.0
2017-May-22 10:28N 43°33' E 010°18'0 0.0
2017-May-22 09:58N 43°33' E 010°18'0 0.0
2017-May-22 09:28N 43°33' E 010°18'0 0.0
2017-May-22 08:58N 43°33' E 010°18'0 0.0
2017-May-22 08:22N 43°33' E 010°18'0 0.0
2017-May-22 07:58N 43°33' E 010°18'0 0.0
2017-May-22 07:28N 43°33' E 010°18'0 0.0
2017-May-22 06:58N 43°33' E 010°18'0 0.0
2017-May-22 06:28N 43°33' E 010°18'0 0.0
2017-May-22 05:58N 43°33' E 010°18'0 0.0
2017-May-22 05:28N 43°33' E 010°18'0 0.0
2017-May-22 04:58N 43°33' E 010°18'0 0.0
2017-May-22 04:28N 43°33' E 010°18'0 0.0
2017-May-22 03:55N 43°33' E 010°18'0 0.0
2017-May-22 03:28N 43°33' E 010°18'0 0.0
2017-May-22 02:58N 43°33' E 010°18'0 0.0
2017-May-22 02:22N 43°33' E 010°18'0 0.0
2017-May-22 01:58N 43°33' E 010°18'0 0.0
2017-May-22 01:28N 43°33' E 010°18'0 0.0
2017-May-22 00:55N 43°33' E 010°18'0 0.0
2017-May-22 00:28N 43°33' E 010°18'0 0.0
2017-May-21 23:58N 43°33' E 010°18'0 0.0
2017-May-21 23:28N 43°33' E 010°18'0 0.0
2017-May-21 22:58N 43°33' E 010°18'0 0.0
2017-May-21 22:28N 43°33' E 010°18'0 0.0
2017-May-21 21:52N 43°33' E 010°18'0 0.0
2017-May-21 21:25N 43°33' E 010°18'0 0.0
2017-May-21 20:58N 43°33' E 010°18'0 0.0
2017-May-21 20:28N 43°33' E 010°18'0 0.0
2017-May-21 19:58N 43°33' E 010°18'0 0.0
2017-May-21 19:19N 43°33' E 010°18'0 0.0
2017-May-21 18:58N 43°33' E 010°18'0 0.0
2017-May-21 18:25N 43°33' E 010°18'0 0.0
2017-May-21 17:58N 43°33' E 010°18'0 0.0
2017-May-21 17:28N 43°33' E 010°18'0 0.0
2017-May-21 16:58N 43°33' E 010°18'0 0.0
2017-May-21 16:28N 43°33' E 010°18'0 0.0
2017-May-21 15:58N 43°33' E 010°18'0 0.0
2017-May-21 15:28N 43°33' E 010°18'0 0.0
2017-May-21 14:58N 43°33' E 010°18'0 0.0
2017-May-21 13:55N 43°33' E 010°18'0 0.0
2017-May-21 13:25N 43°33' E 010°18'0 0.0
2017-May-21 12:58N 43°33' E 010°18'0 0.0
2017-May-21 12:28N 43°33' E 010°18'0 0.0
2017-May-21 11:58N 43°33' E 010°18'0 0.0
2017-May-21 11:28N 43°33' E 010°18'0 0.0
2017-May-21 10:58N 43°33' E 010°18'0 0.0
2017-May-21 10:25N 43°33' E 010°18'0 0.0
2017-May-21 09:58N 43°33' E 010°18'0 0.0
2017-May-21 09:28N 43°33' E 010°18'0 0.0
2017-May-21 08:55N 43°33' E 010°18'0 0.0
2017-May-21 08:25N 43°33' E 010°18'0 0.0
2017-May-21 07:49N 43°33' E 010°18'0 0.0
2017-May-21 07:28N 43°33' E 010°18'0 0.0
2017-May-21 06:52N 43°33' E 010°18'0 0.0
2017-May-21 06:28N 43°33' E 010°18'0 0.0
2017-May-21 05:58N 43°33' E 010°18'0 0.0
2017-May-21 05:28N 43°33' E 010°18'0 0.8
2017-May-21 05:00N 43°33' E 010°18'2 4.4
2017-May-21 04:31N 43°31' E 010°16'611.7
2017-May-21 04:00N 43°26' E 010°13'815.8
2017-May-21 03:30N 43°18' E 010°11'917.3
2017-May-21 03:01N 43°10' E 010°09'917.2
2017-May-21 02:30N 43°01' E 010°06'815.5
2017-May-21 02:00N 42°54' E 010°04'816.8
2017-May-21 01:30N 42°45' E 010°03'1316.1
2017-May-21 00:43N 42°37' E 010°15'417.4
2017-May-21 00:30N 42°34' E 010°18'1017.2
2017-May-20 23:54N 42°25' E 010°26'201 4.6
2017-May-19 03:49N 40°37' E 014°13'18 4.5
2017-May-18 23:55N 40°21' E 014°06'12 5.7
2017-May-18 21:45N 40°27' E 014°20'2 6.4
2017-May-18 21:29N 40°28' E 014°21'6 6.6
2017-May-18 20:38N 40°29' E 014°28'1 6.5
2017-May-18 20:27N 40°29' E 014°30'92 4.0
2017-May-17 21:14N 39°01' E 015°06'1410.7
2017-May-17 19:57N 38°48' E 015°11'714.2
2017-May-17 19:28N 38°42' E 015°15'814.9
2017-May-17 18:57N 38°36' E 015°22'714.6
2017-May-17 18:29N 38°31' E 015°27'714.3
2017-May-17 18:00N 38°26' E 015°33'714.4
2017-May-17 17:30N 38°21' E 015°39'611.4
2017-May-17 17:00N 38°15' E 015°39'714.0
2017-May-17 16:31N 38°08' E 015°37'612.9
2017-May-17 16:01N 38°02' E 015°36'714.3
2017-May-17 15:31N 37°55' E 015°39'815.8
2017-May-17 15:00N 37°52' E 015°49'  
Track history (hours):
 
Tides and Currents Weather Stations Pressure Air Temp Water Temp Dewpoint Dewpoint Depression Visibility Wind Speed Wind Dir Waves Ship Positions

Azamara Quest

Last reported at 2017-May-25 10:30 UTC. Time now 2017-May-25 10:39 UTC.
Position N 43°33' E 010°18'.

Length 181 m; draft 5.9 m.

Type: Passenger vessel. MMSI: 256216000.

Date/timePositionNaut miles runAvg speedWind from/ knotsBaromVisibWave heightAir tempDewpointWater temp
2017-May-25 10:30N 43°33' E 010°18'0 0.0
2017-May-25 10:00N 43°33' E 010°18'0 0.0
2017-May-25 09:30N 43°33' E 010°18'0 0.0
2017-May-25 09:00N 43°33' E 010°18'0 0.0
2017-May-25 08:30N 43°33' E 010°18'0 0.0
2017-May-25 08:00N 43°33' E 010°18'0 0.0
2017-May-25 07:27N 43°33' E 010°18'0 0.0
2017-May-25 07:00N 43°33' E 010°18'0 0.0
2017-May-25 06:24N 43°33' E 010°18'0 0.0
2017-May-25 06:00N 43°33' E 010°18'0 0.0
2017-May-25 05:27N 43°33' E 010°18'0 0.0
2017-May-25 05:00N 43°33' E 010°18'0 0.0
2017-May-25 04:30N 43°33' E 010°18'2 3.4
2017-May-25 04:00N 43°32' E 010°17'4 7.9
2017-May-25 03:30N 43°30' E 010°12'4 7.7
2017-May-25 03:00N 43°30' E 010°07'4 7.7
2017-May-25 02:30N 43°31' E 010°01'4 7.8
2017-May-25 02:00N 43°32' E 009°56'4 8.2
2017-May-25 01:30N 43°33' E 009°51'5 9.3
2017-May-25 01:00N 43°33' E 009°44'5 9.4
2017-May-25 00:30N 43°33' E 009°38'5 9.4
2017-May-25 00:00N 43°33' E 009°31'5 9.4
2017-May-24 23:30N 43°32' E 009°25'5 9.3
2017-May-24 23:00N 43°32' E 009°18'5 9.2
2017-May-24 22:30N 43°32' E 009°12'5 9.6
2017-May-24 22:00N 43°32' E 009°05'814.8
2017-May-24 21:30N 43°32' E 008°55'714.8
2017-May-24 21:00N 43°32' E 008°45'714.9
2017-May-24 20:30N 43°32' E 008°35'815.1
2017-May-24 20:00N 43°31' E 008°24'714.9
2017-May-24 19:30N 43°31' E 008°14'715.0
2017-May-24 19:00N 43°31' E 008°04'714.7
2017-May-24 18:30N 43°31' E 007°54'714.5
2017-May-24 18:00N 43°32' E 007°44'714.2
2017-May-24 17:30N 43°32' E 007°34'714.6
2017-May-24 17:00N 43°34' E 007°24'713.9
2017-May-24 16:30N 43°40' E 007°18'2 3.9
2017-May-24 15:59N 43°42' E 007°17'0 0.0
2017-May-24 15:12N 43°42' E 007°17'0 0.0
2017-May-24 14:51N 43°42' E 007°17'0 0.0
2017-May-24 13:30N 43°42' E 007°17'0 0.0
2017-May-24 12:57N 43°42' E 007°17'0 0.0
2017-May-24 12:21N 43°42' E 007°17'0 0.0
2017-May-24 11:57N 43°42' E 007°17'0 0.0
2017-May-24 11:27N 43°42' E 007°17'0 0.0
2017-May-24 10:57N 43°42' E 007°17'0 0.0
2017-May-24 10:21N 43°42' E 007°17'0 0.0
2017-May-24 10:00N 43°42' E 007°17'0 0.0
2017-May-24 08:09N 43°42' E 007°17'0 0.0
2017-May-24 07:51N 43°42' E 007°17'0 0.0
2017-May-24 04:57N 43°42' E 007°17'0 0.0
2017-May-24 04:03N 43°42' E 007°17'0 0.0
2017-May-24 03:50N 43°42' E 007°17'1 2.0
2017-May-24 03:30N 43°41' E 007°17'4 7.1
2017-May-24 03:00N 43°37' E 007°18'3 6.2
2017-May-24 02:30N 43°34' E 007°18'3 6.2
2017-May-24 02:00N 43°31' E 007°18'3 6.5
2017-May-24 01:30N 43°28' E 007°18'3 6.7
2017-May-24 01:00N 43°25' E 007°19'4 7.0
2017-May-24 00:30N 43°21' E 007°20'5 9.2
2017-May-24 00:00N 43°19' E 007°25'4 7.8
2017-May-23 23:30N 43°18' E 007°30'4 7.4
2017-May-23 23:00N 43°22' E 007°32'4 7.2
2017-May-23 22:30N 43°25' E 007°31'3 6.7
2017-May-23 22:00N 43°28' E 007°28'3 6.9
2017-May-23 21:30N 43°31' E 007°28'4 7.0
2017-May-23 21:00N 43°35' E 007°27'3 6.9
2017-May-23 20:30N 43°38' E 007°27'3 6.7
2017-May-23 20:00N 43°42' E 007°27'2 4.4
2017-May-23 19:30N 43°44' E 007°26'0 0.1
2017-May-23 18:46N 43°44' E 007°26'0 0.0
2017-May-23 16:58N 43°44' E 007°26'2 0.1
2017-May-23 05:11N 43°44' E 007°28'310.8
2017-May-23 04:56N 43°44' E 007°32'3 7.7
2017-May-23 04:30N 43°44' E 007°37'4 7.4
2017-May-23 04:00N 43°44' E 007°42'4 7.6
2017-May-23 03:29N 43°44' E 007°47'4 7.8
2017-May-23 03:00N 43°44' E 007°53'4 8.0
2017-May-23 02:29N 43°44' E 007°58'4 7.9
2017-May-23 02:00N 43°44' E 008°04'4 8.6
2017-May-23 01:30N 43°43' E 008°09'6 9.7
2017-May-23 00:54N 43°42' E 008°17'4 9.9
2017-May-23 00:30N 43°41' E 008°23'5 9.7
2017-May-23 00:00N 43°41' E 008°29'5 9.5
2017-May-22 23:30N 43°40' E 008°36'713.4
2017-May-22 23:00N 43°40' E 008°45'714.8
2017-May-22 22:30N 43°39' E 008°55'715.0
2017-May-22 22:00N 43°38' E 009°06'714.9
2017-May-22 21:30N 43°37' E 009°16'714.8
2017-May-22 21:00N 43°35' E 009°26'714.8
2017-May-22 20:30N 43°35' E 009°36'714.7
2017-May-22 20:00N 43°33' E 009°46'714.5
2017-May-22 19:30N 43°32' E 009°56'713.9
2017-May-22 19:01N 43°30' E 010°05'713.8
2017-May-22 18:31N 43°32' E 010°14'3 5.6
2017-May-22 17:58N 43°33' E 010°18'0 0.0
2017-May-22 17:28N 43°33' E 010°18'0 0.0
2017-May-22 16:58N 43°33' E 010°18'0 0.0
2017-May-22 16:28N 43°33' E 010°18'0 0.0
2017-May-22 15:58N 43°33' E 010°18'0 0.0
2017-May-22 15:28N 43°33' E 010°18'0 0.0
2017-May-22 14:55N 43°33' E 010°18'0 0.0
2017-May-22 13:58N 43°33' E 010°18'0 0.0
2017-May-22 13:25N 43°33' E 010°18'0 0.0
2017-May-22 12:58N 43°33' E 010°18'0 0.0
2017-May-22 12:28N 43°33' E 010°18'0 0.0
2017-May-22 11:55N 43°33' E 010°18'0 0.0
2017-May-22 11:25N 43°33' E 010°18'0 0.0
2017-May-22 10:58N 43°33' E 010°18'0 0.0
2017-May-22 10:28N 43°33' E 010°18'0 0.0
2017-May-22 09:58N 43°33' E 010°18'0 0.0
2017-May-22 09:28N 43°33' E 010°18'0 0.0
2017-May-22 08:58N 43°33' E 010°18'0 0.0
2017-May-22 08:22N 43°33' E 010°18'0 0.0
2017-May-22 07:58N 43°33' E 010°18'0 0.0
2017-May-22 07:28N 43°33' E 010°18'0 0.0
2017-May-22 06:58N 43°33' E 010°18'0 0.0
2017-May-22 06:28N 43°33' E 010°18'0 0.0
2017-May-22 05:58N 43°33' E 010°18'0 0.0
2017-May-22 05:28N 43°33' E 010°18'0 0.0
2017-May-22 04:58N 43°33' E 010°18'0 0.0
2017-May-22 04:28N 43°33' E 010°18'0 0.0
2017-May-22 03:55N 43°33' E 010°18'0 0.0
2017-May-22 03:28N 43°33' E 010°18'0 0.0
2017-May-22 02:58N 43°33' E 010°18'0 0.0
2017-May-22 02:22N 43°33' E 010°18'0 0.0
2017-May-22 01:58N 43°33' E 010°18'0 0.0
2017-May-22 01:28N 43°33' E 010°18'0 0.0
2017-May-22 00:55N 43°33' E 010°18'0 0.0
2017-May-22 00:28N 43°33' E 010°18'0 0.0
2017-May-21 23:58N 43°33' E 010°18'0 0.0
2017-May-21 23:28N 43°33' E 010°18'0 0.0
2017-May-21 22:58N 43°33' E 010°18'0 0.0
2017-May-21 22:28N 43°33' E 010°18'0 0.0
2017-May-21 21:52N 43°33' E 010°18'0 0.0
2017-May-21 21:25N 43°33' E 010°18'0 0.0
2017-May-21 20:58N 43°33' E 010°18'0 0.0
2017-May-21 20:28N 43°33' E 010°18'0 0.0
2017-May-21 19:58N 43°33' E 010°18'0 0.0
2017-May-21 19:19N 43°33' E 010°18'0 0.0
2017-May-21 18:58N 43°33' E 010°18'0 0.0
2017-May-21 18:25N 43°33' E 010°18'0 0.0
2017-May-21 17:58N 43°33' E 010°18'0 0.0
2017-May-21 17:28N 43°33' E 010°18'0 0.0
2017-May-21 16:58N 43°33' E 010°18'0 0.0
2017-May-21 16:28N 43°33' E 010°18'0 0.0
2017-May-21 15:58N 43°33' E 010°18'0 0.0
2017-May-21 15:28N 43°33' E 010°18'0 0.0
2017-May-21 14:58N 43°33' E 010°18'0 0.0
2017-May-21 13:55N 43°33' E 010°18'0 0.0
2017-May-21 13:25N 43°33' E 010°18'0 0.0
2017-May-21 12:58N 43°33' E 010°18'0 0.0
2017-May-21 12:28N 43°33' E 010°18'0 0.0
2017-May-21 11:58N 43°33' E 010°18'0 0.0
2017-May-21 11:28N 43°33' E 010°18'0 0.0
2017-May-21 10:58N 43°33' E 010°18'0 0.0
2017-May-21 10:25N 43°33' E 010°18'0 0.0
2017-May-21 09:58N 43°33' E 010°18'0 0.0
2017-May-21 09:28N 43°33' E 010°18'0 0.0
2017-May-21 08:55N 43°33' E 010°18'0 0.0
2017-May-21 08:25N 43°33' E 010°18'0 0.0
2017-May-21 07:49N 43°33' E 010°18'0 0.0
2017-May-21 07:28N 43°33' E 010°18'0 0.0
2017-May-21 06:52N 43°33' E 010°18'0 0.0
2017-May-21 06:28N 43°33' E 010°18'0 0.0
2017-May-21 05:58N 43°33' E 010°18'0 0.0
2017-May-21 05:28N 43°33' E 010°18'0 0.8
2017-May-21 05:00N 43°33' E 010°18'2 4.4
2017-May-21 04:31N 43°31' E 010°16'611.7
2017-May-21 04:00N 43°26' E 010°13'815.8
2017-May-21 03:30N 43°18' E 010°11'917.3
2017-May-21 03:01N 43°10' E 010°09'917.2
2017-May-21 02:30N 43°01' E 010°06'815.5
2017-May-21 02:00N 42°54' E 010°04'816.8
2017-May-21 01:30N 42°45' E 010°03'1316.1
2017-May-21 00:43N 42°37' E 010°15'417.4
2017-May-21 00:30N 42°34' E 010°18'1017.2
2017-May-20 23:54N 42°25' E 010°26'201 4.6
2017-May-19 03:49N 40°37' E 014°13'18 4.5
2017-May-18 23:55N 40°21' E 014°06'12 5.7
2017-May-18 21:45N 40°27' E 014°20'2 6.4
2017-May-18 21:29N 40°28' E 014°21'6 6.6
2017-May-18 20:38N 40°29' E 014°28'1 6.5
2017-May-18 20:27N 40°29' E 014°30'92 4.0
2017-May-17 21:14N 39°01' E 015°06'1410.7
2017-May-17 19:57N 38°48' E 015°11'714.2
2017-May-17 19:28N 38°42' E 015°15'814.9
2017-May-17 18:57N 38°36' E 015°22'714.6
2017-May-17 18:29N 38°31' E 015°27'714.3
2017-May-17 18:00N 38°26' E 015°33'714.4
2017-May-17 17:30N 38°21' E 015°39'611.4
2017-May-17 17:00N 38°15' E 015°39'714.0
2017-May-17 16:31N 38°08' E 015°37'612.9
2017-May-17 16:01N 38°02' E 015°36'714.3
2017-May-17 15:31N 37°55' E 015°39'815.8
2017-May-17 15:00N 37°52' E 015°49'  

Dump ship's entire track history